createdAt,value
2022-09-07T00:00:49.974Z,6.63
2022-09-07T00:11:01.091Z,6.56
2022-09-07T00:21:09.500Z,7.16
2022-09-07T00:31:17.066Z,7.40
2022-09-07T00:41:24.552Z,7.55
2022-09-07T00:51:41.137Z,7.58
2022-09-07T01:01:49.401Z,7.57
2022-09-07T01:11:59.169Z,6.90
2022-09-07T01:22:20.248Z,6.73
2022-09-07T01:32:35.195Z,6.15
2022-09-07T01:42:46.010Z,6.50
2022-09-07T01:52:55.537Z,6.48
2022-09-07T02:03:08.012Z,7.11
2022-09-07T02:13:24.598Z,6.90
2022-09-07T02:23:36.873Z,6.84
2022-09-07T02:33:47.074Z,6.85
2022-09-07T02:43:50.496Z,7.42
2022-09-07T02:54:10.800Z,7.10
2022-09-07T03:04:28.416Z,7.12
2022-09-07T03:14:34.926Z,6.87
2022-09-07T03:25:07.678Z,7.51
2022-09-07T03:35:18.554Z,7.18
2022-09-07T03:45:21.986Z,7.51
2022-09-07T03:55:27.324Z,7.05
2022-09-07T04:05:32.667Z,7.47
2022-09-07T04:15:41.156Z,7.49
2022-09-07T04:25:48.787Z,8.00
2022-09-07T04:35:53.410Z,7.54
2022-09-07T04:45:56.747Z,7.67
2022-09-07T04:56:01.783Z,7.57
2022-09-07T05:06:07.221Z,7.94
2022-09-07T05:16:13.637Z,7.22
2022-09-07T05:26:36.529Z,7.47
2022-09-07T05:36:41.196Z,7.72
2022-09-07T05:46:44.344Z,8.30
2022-09-07T05:56:48.771Z,8.42
2022-09-07T06:07:20.092Z,8.41
2022-09-07T06:17:16.072Z,8.64
2022-09-07T06:27:19.095Z,8.61
2022-09-07T06:37:23.496Z,8.62
2022-09-07T06:47:26.828Z,8.12
2022-09-07T06:57:31.754Z,8.23
2022-09-07T07:07:35.497Z,8.52
2022-09-07T07:17:39.963Z,9.13
2022-09-07T07:27:43.023Z,9.22
2022-09-07T07:37:48.437Z,9.16
2022-09-07T07:47:51.876Z,8.78
2022-09-07T07:57:56.210Z,8.96
2022-09-07T08:07:59.706Z,9.30
2022-09-07T08:18:04.143Z,10.06
2022-09-07T08:28:07.515Z,10.07
2022-09-07T08:38:31.217Z,9.98
2022-09-07T08:48:36.009Z,10.02
2022-09-07T08:58:49.202Z,9.96
2022-09-07T09:09:06.287Z,10.11
2022-09-07T09:19:32.877Z,10.43
2022-09-07T09:29:35.855Z,11.18
2022-09-07T09:39:42.816Z,11.46
2022-09-07T09:49:46.154Z,11.93
2022-09-07T10:00:06.984Z,11.93
2022-09-07T10:10:17.471Z,12.42
2022-09-07T10:20:39.026Z,11.83
2022-09-07T10:30:58.864Z,11.56
2022-09-07T10:41:07.670Z,11.19
2022-09-07T10:51:16.784Z,11.16
2022-09-07T11:01:31.823Z,11.09
2022-09-07T11:22:16.351Z,10.70
2022-09-07T11:32:23.446Z,10.43
2022-09-07T11:42:49.051Z,10.20
2022-09-07T11:52:56.137Z,9.70
2022-09-07T12:03:25.751Z,9.89
2022-09-07T12:13:47.200Z,9.99
2022-09-07T12:23:51.849Z,10.67
2022-09-07T12:34:28.082Z,10.66
2022-09-07T12:44:34.397Z,10.10
2022-09-07T12:54:43.101Z,9.65
2022-09-07T13:05:02.250Z,9.28
2022-09-07T13:15:06.464Z,9.33
2022-09-07T13:25:45.858Z,9.33
2022-09-07T13:35:50.706Z,9.19
2022-09-07T13:46:01.723Z,9.27
2022-09-07T13:56:21.992Z,9.40
2022-09-07T14:06:32.900Z,9.40
2022-09-07T14:16:36.474Z,9.28
2022-09-07T14:26:47.067Z,8.92
2022-09-07T14:36:51.566Z,8.64
2022-09-07T14:46:57.663Z,8.51
2022-09-07T14:57:07.161Z,8.64
2022-09-07T15:07:29.247Z,8.84
2022-09-07T15:17:48.308Z,8.76
2022-09-07T15:27:54.352Z,8.64
2022-09-07T15:38:01.431Z,8.40
2022-09-07T15:48:06.635Z,8.43
2022-09-07T15:58:12.477Z,8.52
2022-09-07T16:18:41.884Z,8.34
2022-09-07T16:28:50.777Z,8.19
2022-09-07T16:38:55.973Z,8.12
2022-09-07T16:49:00.357Z,8.18
2022-09-07T16:59:05.552Z,7.99
2022-09-07T17:09:11.314Z,7.85
2022-09-07T17:19:31.850Z,7.90
2022-09-07T17:29:37.846Z,7.92
2022-09-07T17:39:40.835Z,7.76
2022-09-07T17:49:45.566Z,7.75
2022-09-07T18:10:14.725Z,8.15
2022-09-07T18:20:19.150Z,8.19
2022-09-07T18:30:24.286Z,8.00
2022-09-07T18:40:40.192Z,7.72
2022-09-07T18:50:58.006Z,6.98
2022-09-07T19:01:08.748Z,6.78
2022-09-07T19:11:15.652Z,6.73
2022-09-07T19:21:24.343Z,7.36
2022-09-07T19:42:44.255Z,7.00
2022-09-07T19:52:58.003Z,6.75
2022-09-07T20:03:01.659Z,6.71
2022-09-07T20:13:06.979Z,7.21
2022-09-07T20:23:10.854Z,7.43
2022-09-07T20:33:15.944Z,6.88
2022-09-07T20:43:19.660Z,6.87
2022-09-07T20:53:25.178Z,6.84
2022-09-07T21:03:29.210Z,6.45
2022-09-07T21:13:36.323Z,6.01
2022-09-07T21:23:58.348Z,5.65
2022-09-07T21:34:06.264Z,6.60
2022-09-07T21:44:13.115Z,7.34
2022-09-07T21:54:18.394Z,7.61
2022-09-07T22:04:22.114Z,7.19
2022-09-07T22:14:27.472Z,7.03
2022-09-07T22:24:30.792Z,6.91
2022-09-07T22:34:35.579Z,6.94
2022-09-07T22:44:41.776Z,7.18
2022-09-07T22:54:46.744Z,7.41
2022-09-07T23:04:49.882Z,7.76
2022-09-07T23:14:54.737Z,7.22
2022-09-07T23:24:58.171Z,6.32
2022-09-07T23:35:03.956Z,6.23
2022-09-07T23:45:08.611Z,6.21
2022-09-07T23:55:13.772Z,6.88
